Time;durP1;ratioP1;P1;durP2;ratioP2;P2;SDS_P1;SDS_P2;PMS_P1;PMS_P2;Temp;Humidity;BMP_temperature;BMP_pressure;BME280_temperature;BME280_humidity;BME280_pressure;Samples;Min_cycle;Max_cycle;Signal;HPM_P1;HPM_P2
2021/07/25 00:00:00;;;;;;;15.55;9.05;;;23.00;68.60;;;;;;5030463;28;20135;-74
2021/07/25 00:02:27;;;;;;;13.20;9.20;;;23.00;69.40;;;;;;5030922;28;20030;-74
2021/07/25 00:04:53;;;;;;;13.13;9.45;;;22.90;69.40;;;;;;5030718;28;20032;-74
2021/07/25 00:07:18;;;;;;;15.68;9.40;;;22.90;69.70;;;;;;5029196;28;20091;-74
2021/07/25 00:09:44;;;;;;;17.35;10.15;;;22.90;69.60;;;;;;5030052;28;20120;-73
2021/07/25 00:12:11;;;;;;;13.20;9.23;;;22.90;69.20;;;;;;5030288;28;20017;-73
2021/07/25 00:14:37;;;;;;;12.02;9.43;;;22.80;70.10;;;;;;5027950;28;20033;-73
2021/07/25 00:17:03;;;;;;;14.68;9.40;;;22.80;70.10;;;;;;5029944;28;20021;-73
2021/07/25 00:19:28;;;;;;;15.68;9.13;;;22.80;70.30;;;;;;5030588;28;20025;-74
2021/07/25 00:21:54;;;;;;;15.73;9.95;;;22.70;70.40;;;;;;5029583;28;20037;-73
2021/07/25 00:24:24;;;;;;;15.45;9.60;;;22.70;70.60;;;;;;5028052;28;20034;-73
2021/07/25 00:26:50;;;;;;;13.20;9.05;;;22.70;70.30;;;;;;5031577;28;20041;-73
2021/07/25 00:29:16;;;;;;;13.20;9.35;;;22.60;71.30;;;;;;5026255;28;20104;-73
2021/07/25 00:31:42;;;;;;;16.33;9.38;;;22.60;71.10;;;;;;5030701;28;20113;-74
2021/07/25 00:34:08;;;;;;;13.68;9.75;;;22.50;71.60;;;;;;5031252;28;20556;-73
2021/07/25 00:36:33;;;;;;;16.33;9.73;;;22.40;71.60;;;;;;5027871;28;20358;-73
2021/07/25 00:38:59;;;;;;;13.27;9.57;;;22.40;72.30;;;;;;5029124;28;20033;-73
2021/07/25 00:41:25;;;;;;;16.15;9.77;;;22.30;73.40;;;;;;5030100;28;20467;-74
2021/07/25 00:43:50;;;;;;;15.70;9.82;;;22.20;74.10;;;;;;5030186;28;20029;-73
2021/07/25 00:46:17;;;;;;;18.35;9.35;;;22.20;74.90;;;;;;5028549;28;20112;-73
2021/07/25 00:48:45;;;;;;;13.00;8.95;;;22.10;74.70;;;;;;5030063;28;20409;-73
2021/07/25 00:51:11;;;;;;;13.95;9.30;;;22.00;74.80;;;;;;5029605;28;20049;-73
2021/07/25 00:53:39;;;;;;;19.88;10.00;;;22.00;75.30;;;;;;5029070;28;20057;-73
2021/07/25 00:56:10;;;;;;;14.90;9.73;;;21.90;75.00;;;;;;5029534;28;20032;-73
2021/07/25 00:58:37;;;;;;;15.40;9.30;;;21.90;75.10;;;;;;5027488;28;20488;-73
2021/07/25 01:01:03;;;;;;;16.38;10.30;;;21.80;75.30;;;;;;5028676;28;20045;-73
2021/07/25 01:03:51;;;;;;;14.55;9.93;;;21.80;76.00;;;;;;5028169;28;20278;-74
2021/07/25 01:06:22;;;;;;;14.80;9.73;;;21.80;76.00;;;;;;5028393;28;20056;-73
2021/07/25 01:08:57;;;;;;;;;;;21.80;75.70;;;;;;5030355;28;20037;-73
2021/07/25 01:11:27;;;;;;;15.02;9.45;;;21.70;76.80;;;;;;5028170;28;19913;-73
2021/07/25 01:13:58;;;;;;;16.90;9.88;;;21.70;75.50;;;;;;5028994;28;20075;-73
2021/07/25 01:16:23;;;;;;;16.90;10.23;;;21.70;76.40;;;;;;5027568;28;20484;-73
2021/07/25 01:18:50;;;;;;;17.20;9.80;;;21.60;78.10;;;;;;5029288;28;20035;-73
2021/07/25 01:21:17;;;;;;;15.88;9.98;;;21.60;79.20;;;;;;5027537;28;20038;-73
2021/07/25 01:23:44;;;;;;;14.75;9.23;;;21.50;77.80;;;;;;5028171;28;20459;-73
2021/07/25 01:26:11;;;;;;;13.50;9.57;;;21.50;77.30;;;;;;5029250;28;20033;-73
2021/07/25 01:28:41;;;;;;;14.63;9.88;;;21.40;78.90;;;;;;5029953;28;20130;-73
2021/07/25 01:31:14;;;;;;;14.52;9.15;;;21.40;79.00;;;;;;5026961;28;20399;-74
2021/07/25 01:33:42;;;;;;;15.82;10.23;;;21.40;79.20;;;;;;5027364;28;20068;-73
2021/07/25 01:36:08;;;;;;;19.05;9.15;;;21.30;78.70;;;;;;5028448;28;20033;-73
2021/07/25 01:38:33;;;;;;;18.05;9.27;;;21.30;80.30;;;;;;5028989;28;20040;-73
2021/07/25 01:41:04;;;;;;;12.75;9.38;;;21.30;79.00;;;;;;5025067;28;20034;-73
2021/07/25 01:43:34;;;;;;;15.87;9.43;;;21.20;78.70;;;;;;5023628;28;20036;-73
2021/07/25 01:46:00;;;;;;;14.63;9.77;;;21.20;78.70;;;;;;5024045;28;20515;-74
2021/07/25 01:48:25;;;;;;;17.70;9.95;;;21.20;78.90;;;;;;5028199;28;20045;-73
2021/07/25 01:50:51;;;;;;;15.38;9.90;;;21.20;78.70;;;;;;5030911;28;20021;-73
2021/07/25 01:53:16;;;;;;;14.32;9.20;;;21.10;78.70;;;;;;5028326;28;20087;-73
2021/07/25 01:55:43;;;;;;;15.88;9.55;;;21.10;78.90;;;;;;5029150;28;20013;-73
2021/07/25 01:58:08;;;;;;;15.73;10.18;;;21.10;79.40;;;;;;5027455;28;20025;-73
2021/07/25 02:00:34;;;;;;;13.20;9.38;;;21.10;79.20;;;;;;5026581;28;20639;-74
2021/07/25 02:02:59;;;;;;;13.63;9.75;;;21.00;78.90;;;;;;5028597;28;20037;-74
2021/07/25 02:05:25;;;;;;;12.90;8.85;;;21.00;78.80;;;;;;5026927;28;20049;-74
2021/07/25 02:07:50;;;;;;;15.18;9.35;;;21.00;79.40;;;;;;5028226;28;21909;-74
2021/07/25 02:10:16;;;;;;;14.63;9.63;;;21.00;79.10;;;;;;5029085;28;20108;-74
2021/07/25 02:12:41;;;;;;;17.80;9.85;;;21.00;79.00;;;;;;5031696;28;20780;-74
2021/07/25 02:15:07;;;;;;;14.15;9.13;;;21.00;78.60;;;;;;5027930;28;20105;-74
2021/07/25 02:17:33;;;;;;;15.02;9.52;;;21.00;79.00;;;;;;5026555;28;20435;-74
2021/07/25 02:19:58;;;;;;;15.40;9.50;;;21.00;79.60;;;;;;5019727;28;20243;-74
2021/07/25 02:22:23;;;;;;;20.67;9.48;;;21.00;79.00;;;;;;5028171;28;20030;-74
2021/07/25 02:24:49;;;;;;;14.35;9.75;;;20.90;79.40;;;;;;5028057;28;20056;-73
2021/07/25 02:27:14;;;;;;;16.60;9.85;;;20.90;80.00;;;;;;5027824;28;20637;-74
2021/07/25 02:29:40;;;;;;;14.95;9.65;;;20.90;79.80;;;;;;5028197;28;20132;-74
2021/07/25 02:32:06;;;;;;;13.45;9.20;;;20.90;80.10;;;;;;5026789;28;20154;-74
2021/07/25 02:34:31;;;;;;;16.73;9.60;;;20.80;80.20;;;;;;5024764;28;20033;-73
2021/07/25 02:36:57;;;;;;;13.27;9.45;;;20.80;80.90;;;;;;5028851;28;20439;-74
2021/07/25 02:39:22;;;;;;;15.60;9.38;;;20.80;83.00;;;;;;5027266;28;20499;-73
2021/07/25 02:41:48;;;;;;;15.07;9.68;;;20.80;82.70;;;;;;5027636;28;20388;-73
2021/07/25 02:44:13;;;;;;;14.40;9.25;;;20.70;83.70;;;;;;5027315;28;20048;-74
2021/07/25 02:46:39;;;;;;;19.25;9.70;;;20.70;83.10;;;;;;5027522;28;20030;-73
2021/07/25 02:49:04;;;;;;;16.95;8.98;;;20.60;82.10;;;;;;5028148;28;20174;-74
2021/07/25 02:51:33;;;;;;;16.17;9.07;;;20.60;82.50;;;;;;5033124;28;20472;-74
2021/07/25 02:53:58;;;;;;;15.57;9.63;;;20.50;83.50;;;;;;5027558;28;20026;-74
2021/07/25 02:56:24;;;;;;;17.17;10.10;;;20.50;82.60;;;;;;5028560;28;20049;-74
2021/07/25 02:58:49;;;;;;;13.73;9.70;;;20.50;83.50;;;;;;5027705;28;20040;-74
2021/07/25 03:01:16;;;;;;;13.52;9.32;;;20.40;83.80;;;;;;5026512;28;20036;-73
2021/07/25 03:03:42;;;;;;;17.17;10.50;;;20.40;84.70;;;;;;5027230;28;20049;-73
2021/07/25 03:06:07;;;;;;;17.42;10.63;;;20.40;87.00;;;;;;5028121;28;20520;-74
2021/07/25 03:08:33;;;;;;;15.88;9.88;;;20.40;85.70;;;;;;5028473;28;20492;-73
2021/07/25 03:10:59;;;;;;;14.20;9.45;;;20.30;86.30;;;;;;5039021;28;20052;-73
2021/07/25 03:13:26;;;;;;;16.08;10.30;;;20.30;86.10;;;;;;5038328;28;20641;-74
2021/07/25 03:15:51;;;;;;;15.98;9.77;;;20.20;85.90;;;;;;5030883;28;20052;-74
2021/07/25 03:18:16;;;;;;;18.73;9.75;;;20.20;86.40;;;;;;5031876;28;20468;-73
2021/07/25 03:20:42;;;;;;;15.63;10.25;;;20.20;88.40;;;;;;5030635;28;20044;-73
2021/07/25 03:23:10;;;;;;;15.77;10.57;;;20.20;88.40;;;;;;5031841;28;20099;-73
2021/07/25 03:25:35;;;;;;;16.45;11.43;;;20.10;89.00;;;;;;5030811;28;20583;-74
2021/07/25 03:28:01;;;;;;;16.75;9.77;;;20.10;91.40;;;;;;5032605;28;20064;-73
2021/07/25 03:30:26;;;;;;;18.15;10.07;;;20.10;90.30;;;;;;5031071;28;20507;-73
2021/07/25 03:32:52;;;;;;;15.65;10.32;;;20.00;90.50;;;;;;5032180;28;20465;-73
2021/07/25 03:35:17;;;;;;;17.00;10.38;;;20.00;90.30;;;;;;5029287;28;20033;-73
2021/07/25 03:37:45;;;;;;;13.52;10.00;;;19.90;90.80;;;;;;5032638;28;20029;-73
2021/07/25 03:40:11;;;;;;;16.80;10.43;;;19.90;91.00;;;;;;5030169;28;20480;-73
2021/07/25 03:42:37;;;;;;;14.32;10.10;;;19.90;90.90;;;;;;5030224;28;20038;-73
2021/07/25 03:45:04;;;;;;;27.05;10.90;;;19.90;92.00;;;;;;5031132;28;20571;-74
2021/07/25 03:47:29;;;;;;;21.15;10.45;;;19.90;91.20;;;;;;5028210;28;20033;-74
2021/07/25 03:49:55;;;;;;;18.42;10.30;;;19.90;91.70;;;;;;5030271;28;20037;-73
2021/07/25 03:52:20;;;;;;;18.63;9.82;;;19.90;91.20;;;;;;5030759;28;20031;-74
2021/07/25 03:54:46;;;;;;;20.92;11.60;;;19.90;90.90;;;;;;5030745;28;20029;-73
2021/07/25 03:57:12;;;;;;;15.70;10.38;;;19.90;91.40;;;;;;5030957;28;20022;-73
2021/07/25 03:59:39;;;;;;;18.33;11.02;;;19.90;91.60;;;;;;5027933;28;20029;-74
2021/07/25 04:02:04;;;;;;;16.42;9.90;;;19.90;91.30;;;;;;5030343;28;20131;-73
2021/07/25 04:04:31;;;;;;;14.55;9.93;;;20.00;91.20;;;;;;5030221;28;20034;-74
2021/07/25 04:06:56;;;;;;;16.67;10.40;;;20.00;91.30;;;;;;5031084;28;20041;-73
2021/07/25 04:09:21;;;;;;;16.05;10.10;;;20.00;91.40;;;;;;5030801;28;20507;-73
2021/07/25 04:11:52;;;;;;;14.57;9.88;;;20.10;91.30;;;;;;5030982;28;20044;-73
2021/07/25 04:14:18;;;;;;;15.25;10.43;;;20.10;91.20;;;;;;5031072;28;20494;-73
2021/07/25 04:16:44;;;;;;;15.23;9.88;;;20.10;91.20;;;;;;5031571;28;20053;-73
2021/07/25 04:19:09;;;;;;;22.95;10.52;;;20.10;91.30;;;;;;5032413;28;20033;-73
2021/07/25 04:21:35;;;;;;;16.30;9.32;;;20.10;91.40;;;;;;5030259;28;20037;-73
2021/07/25 04:24:01;;;;;;;26.15;10.07;;;20.10;91.20;;;;;;5031922;28;20471;-73
2021/07/25 04:26:26;;;;;;;16.13;10.32;;;20.10;91.40;;;;;;5031693;28;20730;-72
2021/07/25 04:28:52;;;;;;;18.58;10.35;;;20.10;91.30;;;;;;5031597;28;20025;-74
2021/07/25 04:31:18;;;;;;;19.73;10.75;;;20.10;91.30;;;;;;5030340;28;20021;-73
2021/07/25 04:33:44;;;;;;;14.07;9.27;;;20.10;91.70;;;;;;5030986;28;20033;-73
2021/07/25 04:36:14;;;;;;;14.35;9.57;;;20.10;91.60;;;;;;5032285;28;20029;-73
2021/07/25 04:38:40;;;;;;;14.85;9.52;;;20.10;91.60;;;;;;5030888;28;20053;-73
2021/07/25 04:41:09;;;;;;;15.60;10.25;;;20.10;92.20;;;;;;5031577;28;20029;-73
2021/07/25 04:43:35;;;;;;;15.35;9.40;;;20.20;92.10;;;;;;5029425;28;20595;-73
2021/07/25 04:46:11;;;;;;;14.77;9.23;;;20.20;92.00;;;;;;5028946;28;20037;-74
2021/07/25 04:48:46;;;;;;;19.58;9.93;;;20.30;91.70;;;;;;5030223;28;20604;-73
2021/07/25 04:51:14;;;;;;;15.23;9.80;;;20.30;91.50;;;;;;5025513;28;20035;-74
2021/07/25 04:53:41;;;;;;;16.63;10.23;;;20.30;91.70;;;;;;5024776;28;20033;-73
2021/07/25 04:56:09;;;;;;;19.88;9.73;;;20.40;91.80;;;;;;5030261;28;20401;-73
2021/07/25 04:58:44;;;;;;;15.15;9.85;;;20.40;91.90;;;;;;5030620;28;20063;-73
2021/07/25 05:01:28;;;;;;;18.23;10.07;;;20.40;91.50;;;;;;5030247;28;20433;-73
2021/07/25 05:03:54;;;;;;;15.38;10.07;;;20.40;91.80;;;;;;5029041;28;20029;-73
2021/07/25 05:06:22;;;;;;;15.02;9.40;;;20.50;91.70;;;;;;5029234;28;20053;-74
2021/07/25 05:08:47;;;;;;;15.43;10.85;;;20.50;91.60;;;;;;5039459;28;20763;-73
2021/07/25 05:11:19;;;;;;;16.50;10.13;;;20.50;91.90;;;;;;5033820;28;20049;-74
2021/07/25 05:13:47;;;;;;;15.45;9.68;;;20.50;91.90;;;;;;5030036;28;20102;-73
2021/07/25 05:16:37;;;;;;;17.83;10.38;;;20.50;92.30;;;;;;5029380;28;20021;-73
2021/07/25 05:19:26;;;;;;;19.48;9.60;;;20.50;91.80;;;;;;5007410;28;20491;-73
2021/07/25 05:22:04;;;;;;;14.85;9.68;;;20.60;92.10;;;;;;5026678;28;20087;-73
2021/07/25 05:24:42;;;;;;;16.63;9.65;;;20.60;91.80;;;;;;5028841;28;20105;-72
2021/07/25 05:27:14;;;;;;;17.90;10.35;;;20.70;92.10;;;;;;5028068;28;20033;-72
2021/07/25 05:29:40;;;;;;;16.70;9.65;;;20.70;92.00;;;;;;5029208;28;20095;-72
2021/07/25 05:32:05;;;;;;;24.20;11.27;;;20.70;92.50;;;;;;5027084;28;20456;-72
2021/07/25 05:34:31;;;;;;;15.07;10.20;;;20.70;91.70;;;;;;5030829;28;20542;-72
2021/07/25 05:36:56;;;;;;;19.10;10.93;;;20.70;91.80;;;;;;5029628;28;20013;-72
2021/07/25 05:39:22;;;;;;;16.00;9.95;;;20.80;92.30;;;;;;5024216;28;20037;-73
2021/07/25 05:41:47;;;;;;;15.45;9.93;;;20.90;92.40;;;;;;5029763;28;20033;-76
2021/07/25 05:44:13;;;;;;;15.90;9.57;;;20.90;92.70;;;;;;5030391;28;20037;-75
2021/07/25 05:46:38;;;;;;;17.83;10.32;;;21.00;91.80;;;;;;5029583;28;20059;-74
2021/07/25 05:49:04;;;;;;;20.27;10.35;;;21.00;91.70;;;;;;5028174;28;20021;-81
2021/07/25 05:51:29;;;;;;;14.27;10.10;;;21.00;92.10;;;;;;5028426;28;20025;-78
2021/07/25 05:53:54;;;;;;;17.70;10.18;;;21.00;92.00;;;;;;5029646;28;20017;-74
2021/07/25 05:56:20;;;;;;;14.50;10.30;;;21.10;92.40;;;;;;5028424;28;20101;-74
2021/07/25 05:58:45;;;;;;;17.50;10.75;;;21.10;92.00;;;;;;5028537;28;20419;-76
2021/07/25 06:01:11;;;;;;;15.10;10.25;;;21.20;92.30;;;;;;5026411;28;20122;-74
2021/07/25 06:03:36;;;;;;;15.05;10.07;;;21.30;91.00;;;;;;5028119;28;21393;-76
2021/07/25 06:06:05;;;;;;;19.83;10.52;;;21.40;91.50;;;;;;5025144;28;20052;-76
2021/07/25 06:08:49;;;;;;;16.33;10.70;;;21.40;91.20;;;;;;5027081;28;20065;-75
2021/07/25 06:11:22;;;;;;;17.73;10.40;;;21.60;92.00;;;;;;5040170;28;20461;-76
2021/07/25 06:13:48;;;;;;;20.70;10.43;;;21.70;91.20;;;;;;5027822;28;20079;-76
2021/07/25 06:16:13;;;;;;;16.42;10.13;;;21.80;90.20;;;;;;5028582;28;20527;-76
2021/07/25 06:18:39;;;;;;;20.17;10.80;;;21.90;90.60;;;;;;5028931;28;20026;-75
2021/07/25 06:21:04;;;;;;;16.45;9.63;;;22.00;90.20;;;;;;5029258;28;20112;-76
2021/07/25 06:23:30;;;;;;;15.65;10.25;;;22.00;90.50;;;;;;5028943;28;20025;-75
2021/07/25 06:25:55;;;;;;;18.65;10.35;;;22.10;90.20;;;;;;5030350;28;20021;-75
2021/07/25 06:28:21;;;;;;;17.95;10.52;;;22.10;90.20;;;;;;5028818;28;20543;-76
2021/07/25 06:30:46;;;;;;;14.85;10.32;;;22.20;90.50;;;;;;5028932;28;20048;-75
2021/07/25 06:33:12;;;;;;;16.25;10.90;;;22.20;91.00;;;;;;5029110;28;20025;-75
2021/07/25 06:35:42;;;;;;;19.08;11.20;;;22.20;90.30;;;;;;5028517;28;20065;-76
2021/07/25 06:38:11;;;;;;;20.58;10.88;;;22.20;90.70;;;;;;5029136;28;20026;-76
2021/07/25 06:40:38;;;;;;;15.90;9.77;;;22.20;90.20;;;;;;5028492;28;20072;-76
2021/07/25 06:43:05;;;;;;;15.50;10.45;;;22.20;88.60;;;;;;5028081;28;20465;-75
2021/07/25 06:45:31;;;;;;;14.13;10.05;;;22.20;90.00;;;;;;5029010;28;20480;-75
2021/07/25 06:47:57;;;;;;;15.05;10.13;;;22.20;89.10;;;;;;5028225;28;20037;-75
2021/07/25 06:50:24;;;;;;;15.82;9.70;;;22.30;88.80;;;;;;5028872;28;20500;-75
2021/07/25 06:52:51;;;;;;;13.20;9.82;;;22.30;89.10;;;;;;5028136;28;20473;-75
2021/07/25 06:55:19;;;;;;;13.18;9.77;;;22.40;89.30;;;;;;5028264;28;20542;-74
2021/07/25 06:57:45;;;;;;;15.95;10.65;;;22.40;87.20;;;;;;5028389;28;20116;-75
2021/07/25 07:00:10;;;;;;;13.13;9.88;;;22.50;88.20;;;;;;5028783;28;20160;-75
2021/07/25 07:02:56;;;;;;;17.13;10.15;;;22.50;89.10;;;;;;5027994;28;20029;-75
2021/07/25 07:05:26;;;;;;;15.15;9.80;;;22.50;90.30;;;;;;5028149;28;20173;-75
2021/07/25 07:07:56;;;;;;;18.15;10.15;;;22.50;89.90;;;;;;5028430;28;20064;-75
2021/07/25 07:10:25;;;;;;;17.38;10.27;;;22.50;89.60;;;;;;5040944;28;20029;-75
2021/07/25 07:12:52;;;;;;;13.05;9.23;;;22.50;90.10;;;;;;5029346;28;20017;-75
2021/07/25 07:15:19;;;;;;;14.40;9.48;;;22.60;89.30;;;;;;5028349;28;20018;-75
2021/07/25 07:17:47;;;;;;;14.43;9.75;;;22.60;89.70;;;;;;5027605;28;20033;-75
2021/07/25 07:20:12;;;;;;;15.82;10.00;;;22.60;89.80;;;;;;5028731;28;20045;-75
2021/07/25 07:22:38;;;;;;;14.30;10.02;;;22.60;89.30;;;;;;5028199;28;20037;-74
2021/07/25 07:25:06;;;;;;;11.75;9.27;;;22.70;90.00;;;;;;5028504;28;20808;-74
2021/07/25 07:27:32;;;;;;;15.10;8.95;;;22.70;89.90;;;;;;5028268;28;20026;-75
2021/07/25 07:29:57;;;;;;;13.85;10.27;;;22.80;87.40;;;;;;5026514;28;20029;-74
2021/07/25 07:32:24;;;;;;;16.02;9.60;;;22.80;88.60;;;;;;5028221;28;20032;-75
2021/07/25 07:34:49;;;;;;;15.70;10.50;;;22.90;87.60;;;;;;5028416;28;20022;-75
2021/07/25 07:37:15;;;;;;;12.63;8.80;;;23.00;87.40;;;;;;5027813;28;20033;-75
2021/07/25 07:39:41;;;;;;;11.02;8.55;;;23.00;86.20;;;;;;5027967;28;20384;-75
2021/07/25 07:42:08;;;;;;;13.07;9.18;;;23.10;85.40;;;;;;5028290;28;20029;-75
2021/07/25 07:44:34;;;;;;;12.65;8.32;;;23.10;87.50;;;;;;5026785;28;20033;-75
2021/07/25 07:47:00;;;;;;;14.52;9.95;;;23.30;86.40;;;;;;5031968;28;20080;-77
2021/07/25 07:49:26;;;;;;;12.43;9.88;;;23.40;85.80;;;;;;5027917;28;20036;-76
2021/07/25 07:51:51;;;;;;;15.77;10.60;;;23.50;86.50;;;;;;5027914;28;20370;-76
2021/07/25 07:54:17;;;;;;;12.07;8.95;;;23.50;87.70;;;;;;5027346;28;20068;-76
2021/07/25 07:56:43;;;;;;;12.93;9.13;;;23.60;84.80;;;;;;5029080;28;20021;-75
2021/07/25 07:59:08;;;;;;;15.48;9.60;;;23.70;82.20;;;;;;5028848;28;20057;-78
2021/07/25 08:01:34;;;;;;;12.82;9.45;;;23.70;83.10;;;;;;5029962;28;20515;-76
2021/07/25 08:04:00;;;;;;;16.15;10.40;;;23.80;84.00;;;;;;5030592;28;20595;-76
2021/07/25 08:06:25;;;;;;;15.85;9.40;;;23.80;83.00;;;;;;5031022;28;20096;-76
2021/07/25 08:08:51;;;;;;;15.77;9.20;;;23.80;82.90;;;;;;5031234;28;20022;-76
2021/07/25 08:11:16;;;;;;;14.77;8.75;;;24.00;81.20;;;;;;5030647;28;20029;-76
2021/07/25 08:13:43;;;;;;;14.35;9.52;;;24.10;81.80;;;;;;5029893;28;20030;-77
2021/07/25 08:16:09;;;;;;;15.80;9.15;;;24.10;80.90;;;;;;5031621;28;20029;-77
2021/07/25 08:18:35;;;;;;;14.05;9.65;;;24.10;80.40;;;;;;5030372;28;20037;-78
2021/07/25 08:21:00;;;;;;;15.35;10.48;;;24.10;80.60;;;;;;5032049;28;20036;-77
2021/07/25 08:23:26;;;;;;;15.45;9.63;;;24.20;83.10;;;;;;5030449;28;20041;-78
2021/07/25 08:25:51;;;;;;;11.98;9.73;;;24.30;83.90;;;;;;5027345;28;20063;-75
2021/07/25 08:28:16;;;;;;;12.50;9.80;;;24.40;81.90;;;;;;5029761;28;20030;-76
2021/07/25 08:30:42;;;;;;;12.32;8.95;;;24.50;77.70;;;;;;5030390;28;20095;-76
2021/07/25 08:33:07;;;;;;;16.80;9.55;;;24.60;79.20;;;;;;5031144;28;20477;-75
2021/07/25 08:35:33;;;;;;;11.95;9.27;;;24.60;82.90;;;;;;5031183;28;20052;-74
2021/07/25 08:37:58;;;;;;;17.38;9.95;;;24.70;82.30;;;;;;5030590;28;20500;-74
2021/07/25 08:40:24;;;;;;;15.43;10.00;;;24.70;80.80;;;;;;5031267;28;20025;-75
2021/07/25 08:43:11;;;;;;;13.23;9.80;;;24.80;81.60;;;;;;5031070;28;20252;-75
2021/07/25 08:45:42;;;;;;;14.07;9.15;;;24.90;78.30;;;;;;5028306;28;20032;-75
2021/07/25 08:48:16;;;;;;;16.52;9.80;;;25.00;78.20;;;;;;5028279;28;20547;-74
2021/07/25 08:50:44;;;;;;;12.75;9.80;;;25.10;76.90;;;;;;5020944;28;20037;-75
2021/07/25 08:53:18;;;;;;;12.88;9.15;;;25.10;76.80;;;;;;5029563;28;20025;-76
2021/07/25 08:55:45;;;;;;;14.90;9.52;;;25.10;78.60;;;;;;5027564;28;20021;-76
2021/07/25 08:58:12;;;;;;;16.48;9.52;;;25.20;79.60;;;;;;5030033;28;21820;-74
2021/07/25 09:00:38;;;;;;;15.27;9.75;;;25.30;75.50;;;;;;5029340;28;20034;-75
2021/07/25 09:03:07;;;;;;;16.67;10.02;;;25.40;75.00;;;;;;5026404;28;20027;-75
2021/07/25 09:05:33;;;;;;;14.90;9.75;;;25.50;75.10;;;;;;5028056;28;20069;-75
2021/07/25 09:08:01;;;;;;;13.00;9.57;;;25.60;75.40;;;;;;5030849;28;20118;-77
2021/07/25 09:10:26;;;;;;;15.77;9.68;;;25.70;75.60;;;;;;5031267;28;20427;-77
2021/07/25 09:12:52;;;;;;;19.70;10.65;;;25.70;75.20;;;;;;5029800;28;20024;-77
2021/07/25 09:15:21;;;;;;;18.40;9.98;;;25.80;73.60;;;;;;5023085;28;20034;-71
2021/07/25 09:17:48;;;;;;;14.88;10.23;;;25.80;72.80;;;;;;5025634;28;20048;-77
2021/07/25 09:20:20;;;;;;;16.17;10.00;;;25.80;73.00;;;;;;5026858;28;20804;-74
2021/07/25 09:22:48;;;;;;;24.25;10.07;;;25.90;74.60;;;;;;5027071;28;20392;-77
2021/07/25 09:25:20;;;;;;;17.67;10.32;;;26.00;76.40;;;;;;5027392;28;20064;-82
2021/07/25 09:27:47;;;;;;;13.98;9.63;;;26.10;74.70;;;;;;5025042;28;20887;-75
2021/07/25 09:30:19;;;;;;;12.88;10.02;;;26.20;74.20;;;;;;5026225;28;20103;-77
2021/07/25 09:32:46;;;;;;;13.40;9.90;;;26.30;76.10;;;;;;5027935;28;20029;-77
2021/07/25 09:35:32;;;;;;;14.73;10.50;;;26.40;75.30;;;;;;5027111;28;20028;-77
2021/07/25 09:38:04;;;;;;;13.57;9.30;;;26.50;75.20;;;;;;5027971;28;20033;-78
2021/07/25 09:40:32;;;;;;;14.57;10.20;;;26.60;73.10;;;;;;5025446;28;20029;-76
2021/07/25 09:43:12;;;;;;;14.52;10.15;;;26.60;72.10;;;;;;5027339;28;20026;-77
2021/07/25 09:45:50;;;;;;;14.93;10.48;;;26.70;74.40;;;;;;5025944;28;20107;-79
2021/07/25 09:48:20;;;;;;;15.57;10.45;;;26.70;73.70;;;;;;5026100;28;20476;-80
2021/07/25 09:50:46;;;;;;;21.70;10.90;;;26.70;74.80;;;;;;5025880;28;20051;-77
2021/07/25 09:53:13;;;;;;;15.45;9.75;;;26.80;72.20;;;;;;5024296;28;20084;-76
2021/07/25 09:55:38;;;;;;;13.27;10.23;;;26.80;74.20;;;;;;5026115;28;20032;-75
2021/07/25 09:58:05;;;;;;;12.82;9.65;;;26.70;72.80;;;;;;5027183;28;20108;-78
2021/07/25 10:00:44;;;;;;;14.45;10.05;;;26.70;73.50;;;;;;5026041;28;20038;-77
2021/07/25 10:03:23;;;;;;;15.20;10.00;;;26.80;74.90;;;;;;5024921;28;21310;-77
2021/07/25 10:05:50;;;;;;;17.92;10.70;;;26.90;73.70;;;;;;5025921;28;20064;-77
2021/07/25 10:08:18;;;;;;;18.10;10.25;;;26.90;74.00;;;;;;5024284;28;20033;-78
2021/07/25 10:10:45;;;;;;;12.95;9.65;;;27.10;76.90;;;;;;5023553;28;20027;-76
2021/07/25 10:13:15;;;;;;;13.70;10.25;;;27.20;74.90;;;;;;5025076;28;20504;-75
2021/07/25 10:15:41;;;;;;;15.73;10.68;;;27.20;71.80;;;;;;5024571;28;20514;-75
2021/07/25 10:18:07;;;;;;;14.60;10.07;;;27.30;73.60;;;;;;5026057;28;20049;-74
2021/07/25 10:20:34;;;;;;;13.35;9.80;;;27.40;73.10;;;;;;5025065;28;20056;-73
2021/07/25 10:23:01;;;;;;;13.63;9.63;;;27.50;70.70;;;;;;5026523;28;20033;-74
2021/07/25 10:25:28;;;;;;;12.52;9.52;;;27.60;70.30;;;;;;5022987;28;20128;-76
2021/07/25 10:27:57;;;;;;;10.82;9.10;;;27.70;68.30;;;;;;5024872;28;20025;-78
2021/07/25 10:30:23;;;;;;;11.38;8.95;;;27.80;68.90;;;;;;5021979;28;20025;-76
2021/07/25 10:32:51;;;;;;;12.77;9.00;;;27.90;70.30;;;;;;5025667;28;20025;-78
2021/07/25 10:35:18;;;;;;;17.73;9.88;;;28.00;69.10;;;;;;5026845;28;20120;-77
2021/07/25 10:37:44;;;;;;;15.20;9.20;;;28.10;68.30;;;;;;5020643;28;20068;-77
2021/07/25 10:40:13;;;;;;;15.80;9.90;;;28.20;69.70;;;;;;5025156;28;20032;-76
2021/07/25 10:42:44;;;;;;;18.02;9.50;;;28.30;66.40;;;;;;5023187;28;20473;-77
2021/07/25 10:45:10;;;;;;;18.58;9.88;;;28.40;67.50;;;;;;5026281;28;20033;-77
2021/07/25 10:47:36;;;;;;;13.95;8.82;;;28.60;67.20;;;;;;5025049;28;20026;-77
2021/07/25 10:50:06;;;;;;;12.38;9.65;;;28.80;66.50;;;;;;5025125;28;20484;-76
2021/07/25 10:52:52;;;;;;;12.45;9.05;;;28.90;67.40;;;;;;5022480;28;20618;-77
2021/07/25 10:55:41;;;;;;;15.02;9.57;;;29.20;64.40;;;;;;5025923;28;20033;-78
2021/07/25 10:58:24;;;;;;;12.73;9.30;;;29.40;64.00;;;;;;5025819;28;20037;-74
2021/07/25 11:00:52;;;;;;;11.15;9.18;;;29.60;63.70;;;;;;5024597;28;20644;-74
2021/07/25 11:03:30;;;;;;;12.68;9.48;;;29.80;63.80;;;;;;5023574;28;20065;-75
2021/07/25 11:06:02;;;;;;;11.20;8.80;;;29.90;62.40;;;;;;5023626;28;20034;-77
2021/07/25 11:08:41;;;;;;;12.35;8.85;;;30.00;62.70;;;;;;5024485;28;20370;-74
2021/07/25 11:11:25;;;;;;;12.30;8.77;;;30.00;61.30;;;;;;5022068;28;20022;-75
2021/07/25 11:13:50;;;;;;;13.30;8.77;;;29.90;57.90;;;;;;5023135;28;20640;-76
2021/07/25 11:16:31;;;;;;;12.07;8.60;;;29.80;59.60;;;;;;5025723;28;20036;-76
2021/07/25 11:18:58;;;;;;;15.38;10.38;;;29.80;57.50;;;;;;5025012;28;20377;-76
2021/07/25 11:21:43;;;;;;;14.68;9.48;;;29.70;57.10;;;;;;5021778;28;20159;-75
2021/07/25 11:24:22;;;;;;;11.60;8.90;;;29.60;60.90;;;;;;5024900;28;20091;-73
2021/07/25 11:26:52;;;;;;;14.52;8.98;;;29.60;57.90;;;;;;5026054;28;20041;-75
2021/07/25 11:29:22;;;;;;;12.40;9.27;;;29.70;59.50;;;;;;5024829;28;20503;-76
2021/07/25 11:31:49;;;;;;;12.93;9.48;;;29.60;58.10;;;;;;5028417;28;20028;-75
2021/07/25 11:34:39;;;;;;;12.95;9.27;;;29.40;61.80;;;;;;5027332;28;20030;-75
2021/07/25 11:37:08;;;;;;;14.27;8.90;;;29.30;61.30;;;;;;5027431;28;20131;-80
2021/07/25 11:39:34;;;;;;;12.65;9.25;;;29.20;60.20;;;;;;5027504;28;20380;-80
2021/07/25 11:42:07;;;;;;;11.65;8.68;;;29.10;62.10;;;;;;5027160;28;20037;-77
2021/07/25 11:44:34;;;;;;;12.98;9.02;;;29.20;63.40;;;;;;5028227;28;20040;-76
2021/07/25 11:47:01;;;;;;;11.23;8.70;;;29.70;59.90;;;;;;5028534;28;20034;-80
2021/07/25 11:49:27;;;;;;;13.85;10.02;;;30.30;59.60;;;;;;5027915;28;20021;-78
2021/07/25 11:52:00;;;;;;;10.98;8.52;;;30.90;56.30;;;;;;5029191;28;20029;-79
2021/07/25 11:54:40;;;;;;;10.52;8.90;;;31.60;55.40;;;;;;5026858;28;20029;-78
2021/07/25 11:57:16;;;;;;;11.10;9.27;;;32.10;55.70;;;;;;5028179;28;20025;-77
2021/07/25 11:59:49;;;;;;;10.90;9.02;;;32.40;51.90;;;;;;5029590;28;20036;-77
2021/07/25 12:02:26;;;;;;;13.05;9.73;;;32.70;52.50;;;;;;5028287;28;20032;-76
2021/07/25 12:04:52;;;;;;;15.02;8.57;;;33.30;51.30;;;;;;5031451;28;20051;-75
2021/07/25 12:07:20;;;;;;;10.85;9.25;;;33.80;51.30;;;;;;5027796;28;20500;-77
2021/07/25 12:09:51;;;;;;;12.27;9.40;;;34.10;50.50;;;;;;5030034;28;20029;-75
2021/07/25 12:12:21;;;;;;;11.40;9.32;;;34.40;50.30;;;;;;5021565;28;20686;-75
2021/07/25 12:14:52;;;;;;;14.15;9.48;;;34.20;49.80;;;;;;5025586;28;20029;-75
2021/07/25 12:17:52;;;;;;;13.07;9.35;;;33.60;49.80;;;;;;5024879;28;20485;-75
2021/07/25 12:20:18;;;;;;;10.35;8.55;;;33.60;50.20;;;;;;5022865;28;20037;-77
2021/07/25 12:22:55;;;;;;;13.05;9.40;;;33.30;50.00;;;;;;5023336;28;20037;-75
2021/07/25 12:25:22;;;;;;;13.27;10.13;;;32.70;51.20;;;;;;5024870;28;20033;-76
2021/07/25 12:28:13;;;;;;;15.02;9.82;;;32.70;51.00;;;;;;5033605;28;20388;-77
2021/07/25 12:30:54;;;;;;;11.80;9.20;;;32.90;51.70;;;;;;5025311;28;20025;-74
2021/07/25 12:33:25;;;;;;;13.13;9.82;;;32.90;50.80;;;;;;5021365;28;20393;-76
2021/07/25 12:35:51;;;;;;;14.23;9.57;;;33.10;50.30;;;;;;5025041;28;20029;-76
2021/07/25 12:38:18;;;;;;;16.15;9.20;;;33.90;50.80;;;;;;5026889;28;20033;-77